createdAt,value
2017-09-22T00:00:03.560Z,65.80
2017-09-22T00:02:31.166Z,65.80
2017-09-22T00:04:58.647Z,65.50
2017-09-22T00:07:26.895Z,65.50
2017-09-22T00:09:55.168Z,66.00
2017-09-22T00:12:22.661Z,66.00
2017-09-22T00:14:50.132Z,66.10
2017-09-22T00:17:17.616Z,66.00
2017-09-22T00:19:46.600Z,66.00
2017-09-22T00:22:14.137Z,66.00
2017-09-22T00:24:41.707Z,65.90
2017-09-22T00:27:09.233Z,65.90
2017-09-22T00:29:36.740Z,66.10
2017-09-22T00:32:04.219Z,66.20
2017-09-22T00:34:31.776Z,66.40
2017-09-22T00:36:59.310Z,66.70
2017-09-22T00:39:26.917Z,66.50
2017-09-22T00:41:54.419Z,66.50
2017-09-22T00:44:22.675Z,66.90
2017-09-22T00:46:50.222Z,66.80
2017-09-22T00:49:17.699Z,67.00
2017-09-22T00:51:46.164Z,67.00
2017-09-22T00:54:13.656Z,67.00
2017-09-22T00:56:41.908Z,67.00
2017-09-22T00:59:09.501Z,67.00
2017-09-22T01:01:36.999Z,67.10
2017-09-22T01:04:04.476Z,67.20
2017-09-22T01:06:32.758Z,67.40
2017-09-22T01:09:00.252Z,67.40
2017-09-22T01:11:27.741Z,67.40
2017-09-22T01:13:55.236Z,67.50
2017-09-22T01:16:22.726Z,67.40
2017-09-22T01:18:50.199Z,67.60
2017-09-22T01:21:17.704Z,67.90
2017-09-22T01:23:45.945Z,67.80
2017-09-22T01:26:13.474Z,67.80
2017-09-22T01:28:40.966Z,67.70
2017-09-22T01:31:08.445Z,67.80
2017-09-22T01:33:35.962Z,68.10
2017-09-22T01:36:03.441Z,67.40
2017-09-22T01:38:31.735Z,67.80
2017-09-22T01:40:59.990Z,67.60
2017-09-22T01:43:28.247Z,67.40
2017-09-22T01:45:56.498Z,67.30
2017-09-22T01:48:24.084Z,67.30
2017-09-22T01:50:51.564Z,67.50
2017-09-22T01:53:19.051Z,67.20
2017-09-22T01:55:46.559Z,67.10
2017-09-22T01:58:14.841Z,67.20
2017-09-22T02:00:42.334Z,67.20
2017-09-22T02:03:09.826Z,67.20
2017-09-22T02:05:37.417Z,67.10
2017-09-22T02:08:04.949Z,67.30
2017-09-22T02:10:32.424Z,67.40
2017-09-22T02:13:00.887Z,67.30
2017-09-22T02:15:28.361Z,67.30
2017-09-22T02:17:55.853Z,67.10
2017-09-22T02:20:23.358Z,67.00
2017-09-22T02:22:50.837Z,67.00
2017-09-22T02:25:18.349Z,67.30
2017-09-22T02:27:46.653Z,67.50
2017-09-22T02:30:14.916Z,67.70
2017-09-22T02:32:42.413Z,67.70
2017-09-22T02:35:09.893Z,67.60
2017-09-22T02:37:37.489Z,67.60
2017-09-22T02:40:05.746Z,67.70
2017-09-22T02:42:33.234Z,67.60
2017-09-22T02:45:00.717Z,67.80
2017-09-22T02:47:28.205Z,67.90
2017-09-22T02:49:55.713Z,68.10
2017-09-22T02:52:23.211Z,68.30
2017-09-22T02:54:50.710Z,68.20
2017-09-22T02:57:18.972Z,67.90
2017-09-22T02:59:46.483Z,67.80
2017-09-22T03:02:13.959Z,67.90
2017-09-22T03:04:41.444Z,67.80
2017-09-22T03:07:08.930Z,68.00
2017-09-22T03:09:37.211Z,68.20
2017-09-22T03:12:04.689Z,68.10
2017-09-22T03:14:32.243Z,68.10
2017-09-22T03:16:59.924Z,68.00
2017-09-22T03:19:27.391Z,67.90
2017-09-22T03:21:54.929Z,67.90
2017-09-22T03:24:23.201Z,67.50
2017-09-22T03:26:50.682Z,67.50
2017-09-22T03:29:18.937Z,67.40
2017-09-22T03:31:47.172Z,67.40
2017-09-22T03:34:14.788Z,67.40
2017-09-22T03:36:42.267Z,67.50
2017-09-22T03:39:10.513Z,67.10
2017-09-22T03:41:38.767Z,67.10
2017-09-22T03:44:06.250Z,66.90
2017-09-22T03:46:34.621Z,66.90
2017-09-22T03:49:02.101Z,66.80
2017-09-22T03:51:29.625Z,66.80
2017-09-22T03:53:57.122Z,66.70
2017-09-22T03:56:24.614Z,66.80
2017-09-22T03:58:52.121Z,66.90
2017-09-22T04:01:20.365Z,66.60
2017-09-22T04:03:47.862Z,66.90
2017-09-22T04:06:15.332Z,66.40
2017-09-22T04:08:42.825Z,66.50
2017-09-22T04:11:11.079Z,66.70
2017-09-22T04:13:38.554Z,66.70
2017-09-22T04:16:06.815Z,67.70
2017-09-22T04:18:35.810Z,67.90
2017-09-22T04:21:03.313Z,67.80
2017-09-22T04:23:31.618Z,68.60
2017-09-22T04:25:59.918Z,67.50
2017-09-22T04:28:27.419Z,68.40
2017-09-22T04:30:55.040Z,67.00
2017-09-22T04:33:22.591Z,66.70
2017-09-22T04:35:50.841Z,67.60
2017-09-22T04:38:18.364Z,67.50
2017-09-22T04:40:46.637Z,67.80
2017-09-22T04:43:14.124Z,67.80
2017-09-22T04:45:41.620Z,67.70
2017-09-22T04:48:09.128Z,67.80
2017-09-22T04:50:37.371Z,68.00
2017-09-22T04:53:04.963Z,68.10
2017-09-22T04:55:32.441Z,67.90
2017-09-22T04:57:59.935Z,68.00
2017-09-22T05:00:27.558Z,67.50
2017-09-22T05:02:55.800Z,68.40
2017-09-22T05:05:23.317Z,67.70
2017-09-22T05:07:50.856Z,68.10
2017-09-22T05:10:18.330Z,68.00
2017-09-22T05:12:46.750Z,67.70
2017-09-22T05:15:14.218Z,67.70
2017-09-22T05:17:41.703Z,67.70
2017-09-22T05:20:09.200Z,66.70
2017-09-22T05:22:37.451Z,67.50
2017-09-22T05:25:05.006Z,67.30
2017-09-22T05:27:32.668Z,66.90
2017-09-22T05:30:00.176Z,66.10
2017-09-22T05:32:27.669Z,65.90
2017-09-22T05:34:55.134Z,65.80
2017-09-22T05:37:23.404Z,65.90
2017-09-22T05:39:50.908Z,65.80
2017-09-22T05:42:19.151Z,65.50
2017-09-22T05:44:47.434Z,65.00
2017-09-22T05:47:15.707Z,64.70
2017-09-22T05:49:43.194Z,64.40
2017-09-22T05:52:11.511Z,64.30
2017-09-22T05:54:40.923Z,64.80
2017-09-22T05:57:08.411Z,64.20
2017-09-22T05:59:36.065Z,63.80
2017-09-22T06:02:03.552Z,63.20
2017-09-22T06:04:31.212Z,63.10
2017-09-22T06:06:58.811Z,63.10
2017-09-22T06:09:26.270Z,63.10
2017-09-22T06:11:53.739Z,63.10
2017-09-22T06:14:21.317Z,63.10
2017-09-22T06:16:48.830Z,62.60
2017-09-22T06:19:16.316Z,62.60
2017-09-22T06:21:44.058Z,62.90
2017-09-22T06:24:11.569Z,62.80
2017-09-22T06:26:39.021Z,62.60
2017-09-22T06:29:06.681Z,61.80
2017-09-22T06:31:34.158Z,62.20
2017-09-22T06:34:01.635Z,63.00
2017-09-22T06:36:29.144Z,62.70
2017-09-22T06:38:57.387Z,62.70
2017-09-22T06:41:24.862Z,62.70
2017-09-22T06:43:52.411Z,62.30
2017-09-22T06:46:20.687Z,61.00
2017-09-22T06:48:48.223Z,60.90
2017-09-22T06:51:15.674Z,60.80
2017-09-22T06:53:43.922Z,61.00
2017-09-22T06:56:11.421Z,60.90
2017-09-22T06:58:39.006Z,60.80
2017-09-22T07:01:06.493Z,60.90
2017-09-22T07:03:33.955Z,60.80
2017-09-22T07:06:01.479Z,60.50
2017-09-22T07:08:28.942Z,60.40
2017-09-22T07:10:57.216Z,59.90
2017-09-22T07:13:24.698Z,59.80
2017-09-22T07:15:52.168Z,59.80
2017-09-22T07:18:19.642Z,59.30
2017-09-22T07:20:47.111Z,58.80
2017-09-22T07:23:15.379Z,57.80
2017-09-22T07:25:42.857Z,57.70
2017-09-22T07:28:10.506Z,58.30
2017-09-22T07:30:37.969Z,57.40
2017-09-22T07:33:05.440Z,57.30
2017-09-22T07:35:32.938Z,56.60
2017-09-22T07:38:00.393Z,56.00
2017-09-22T07:40:28.650Z,55.90
2017-09-22T07:42:56.125Z,55.90
2017-09-22T07:45:23.590Z,55.20
2017-09-22T07:47:51.075Z,55.00
2017-09-22T07:50:19.368Z,53.00
2017-09-22T07:52:46.970Z,52.90
2017-09-22T07:55:14.432Z,51.80
2017-09-22T07:57:42.095Z,50.50
2017-09-22T08:00:10.375Z,49.70
2017-09-22T08:02:37.894Z,49.10
2017-09-22T08:05:06.146Z,48.20
2017-09-22T08:07:33.601Z,48.10
2017-09-22T08:10:01.255Z,47.90
2017-09-22T08:12:29.479Z,48.50
2017-09-22T08:14:56.944Z,48.50
2017-09-22T08:17:25.184Z,47.60
2017-09-22T08:19:53.405Z,47.50
2017-09-22T08:22:20.908Z,47.90
2017-09-22T08:24:48.582Z,47.60
2017-09-22T08:27:16.880Z,48.60
2017-09-22T08:29:44.379Z,48.50
2017-09-22T08:32:11.853Z,48.60
2017-09-22T08:34:39.354Z,48.50
2017-09-22T08:37:07.607Z,48.70
2017-09-22T08:39:35.112Z,48.60
2017-09-22T08:42:02.589Z,48.90
2017-09-22T08:44:30.406Z,48.80
2017-09-22T08:46:58.648Z,48.60
2017-09-22T08:49:26.399Z,48.50
2017-09-22T08:51:54.664Z,48.70
2017-09-22T08:54:22.137Z,48.70
2017-09-22T08:56:49.599Z,47.80
2017-09-22T08:59:17.091Z,48.20
2017-09-22T09:01:44.543Z,47.50
2017-09-22T09:04:12.011Z,47.00
2017-09-22T09:06:40.250Z,47.20
2017-09-22T09:09:07.703Z,47.20
2017-09-22T09:11:35.337Z,47.30
2017-09-22T09:14:02.811Z,46.70
2017-09-22T09:16:30.326Z,47.00
2017-09-22T09:18:57.972Z,47.30
2017-09-22T09:21:25.442Z,47.20
2017-09-22T09:23:52.903Z,47.20
2017-09-22T09:26:21.255Z,48.00
2017-09-22T09:28:48.704Z,47.90
2017-09-22T09:31:16.171Z,47.30
2017-09-22T09:33:43.655Z,46.70
2017-09-22T09:36:11.223Z,47.00
2017-09-22T09:38:39.441Z,48.00
2017-09-22T09:41:07.068Z,47.90
2017-09-22T09:43:34.534Z,47.70
2017-09-22T09:46:01.986Z,47.20
2017-09-22T09:48:29.478Z,47.20
2017-09-22T09:50:57.191Z,47.70
2017-09-22T09:53:25.128Z,47.80
2017-09-22T09:55:52.597Z,47.50
2017-09-22T09:58:20.059Z,48.60
2017-09-22T10:00:47.534Z,47.30
2017-09-22T10:03:15.032Z,47.50
2017-09-22T10:05:42.588Z,47.50
2017-09-22T10:08:10.134Z,47.10
2017-09-22T10:10:38.497Z,47.80
2017-09-22T10:13:06.004Z,47.80
2017-09-22T10:15:33.492Z,48.10
2017-09-22T10:18:01.069Z,48.30
2017-09-22T10:20:28.547Z,49.00
2017-09-22T10:22:56.031Z,48.70
2017-09-22T10:25:23.513Z,48.70
2017-09-22T10:27:50.975Z,48.00
2017-09-22T10:30:18.465Z,47.60
2017-09-22T10:32:46.804Z,48.90
2017-09-22T10:35:15.209Z,48.70
2017-09-22T10:37:42.658Z,48.70
2017-09-22T10:40:10.254Z,48.00
2017-09-22T10:42:37.772Z,48.20
2017-09-22T10:45:05.986Z,47.10
2017-09-22T10:47:33.561Z,47.00
2017-09-22T10:50:01.823Z,46.60
2017-09-22T10:52:29.303Z,46.50
2017-09-22T10:54:56.856Z,46.40
2017-09-22T10:57:25.085Z,46.80
2017-09-22T10:59:52.681Z,46.80
2017-09-22T11:02:20.170Z,47.30
2017-09-22T11:04:47.687Z,46.80
2017-09-22T11:07:15.151Z,45.70
2017-09-22T11:09:43.409Z,46.40
2017-09-22T11:12:10.880Z,46.40
2017-09-22T11:14:38.355Z,48.00
2017-09-22T11:17:05.826Z,48.30
2017-09-22T11:19:33.508Z,48.00
2017-09-22T11:22:01.163Z,47.20
2017-09-22T11:24:29.629Z,47.00
2017-09-22T11:26:57.152Z,46.90
2017-09-22T11:29:24.623Z,46.20
2017-09-22T11:31:51.650Z,46.00
2017-09-22T11:34:19.383Z,47.00
2017-09-22T11:36:48.928Z,48.20
2017-09-22T11:39:18.377Z,48.60
2017-09-22T11:41:46.052Z,48.60
2017-09-22T11:44:13.768Z,49.30
2017-09-22T11:46:42.196Z,49.20
2017-09-22T11:49:09.912Z,48.40
2017-09-22T11:51:38.607Z,49.00
2017-09-22T11:54:06.566Z,49.00
2017-09-22T11:56:36.560Z,49.10
2017-09-22T11:59:04.704Z,48.70
2017-09-22T12:01:34.293Z,48.30
2017-09-22T12:04:02.708Z,48.00
2017-09-22T12:06:31.195Z,48.10
2017-09-22T12:08:59.952Z,48.10
2017-09-22T12:11:27.587Z,48.20
2017-09-22T12:13:56.759Z,48.60
2017-09-22T12:16:24.391Z,48.60
2017-09-22T12:18:52.904Z,49.10
2017-09-22T12:21:20.634Z,49.20
2017-09-22T12:23:48.314Z,49.30
2017-09-22T12:26:16.056Z,49.30
2017-09-22T12:28:43.651Z,48.80
2017-09-22T12:31:11.131Z,49.10
2017-09-22T12:33:38.678Z,48.40
2017-09-22T12:36:06.168Z,48.70
2017-09-22T12:38:33.866Z,47.90
2017-09-22T12:41:01.373Z,47.40
2017-09-22T12:43:28.872Z,47.00
2017-09-22T12:45:57.108Z,46.60
2017-09-22T12:48:24.586Z,46.20
2017-09-22T12:50:52.160Z,46.20
2017-09-22T12:53:19.686Z,45.70
2017-09-22T12:55:47.150Z,46.40
2017-09-22T12:58:14.617Z,45.60
2017-09-22T13:00:42.084Z,45.20
2017-09-22T13:03:09.650Z,44.00
2017-09-22T13:05:37.144Z,43.90
2017-09-22T13:08:05.409Z,44.90
2017-09-22T13:10:33.023Z,44.90
2017-09-22T13:13:01.254Z,46.00
2017-09-22T13:15:28.747Z,45.40
2017-09-22T13:17:56.252Z,46.00
2017-09-22T13:20:23.729Z,46.10
2017-09-22T13:22:51.215Z,46.80
2017-09-22T13:25:18.731Z,46.80
2017-09-22T13:27:46.300Z,46.80
2017-09-22T13:30:13.769Z,45.40
2017-09-22T13:32:42.016Z,46.10
2017-09-22T13:35:09.636Z,46.00
2017-09-22T13:37:37.211Z,46.00
2017-09-22T13:40:04.668Z,45.20
2017-09-22T13:42:32.284Z,44.70
2017-09-22T13:44:59.745Z,44.70
2017-09-22T13:47:27.209Z,45.10
2017-09-22T13:49:55.482Z,45.60
2017-09-22T13:52:22.995Z,45.40
2017-09-22T13:54:51.340Z,45.40
2017-09-22T13:57:18.819Z,45.40
2017-09-22T13:59:46.301Z,45.20
2017-09-22T14:02:13.804Z,45.40
2017-09-22T14:04:41.263Z,45.70
2017-09-22T14:07:08.787Z,45.70
2017-09-22T14:09:36.359Z,46.00
2017-09-22T14:12:03.861Z,46.50
2017-09-22T14:14:31.411Z,45.80
2017-09-22T14:16:58.870Z,46.00
2017-09-22T14:19:26.370Z,46.00
2017-09-22T14:21:53.945Z,45.80
2017-09-22T14:24:21.441Z,46.10
2017-09-22T14:26:48.914Z,46.60
2017-09-22T14:29:16.380Z,46.80
2017-09-22T14:31:43.890Z,47.10
2017-09-22T14:34:11.360Z,46.80
2017-09-22T14:36:38.854Z,47.10
2017-09-22T14:39:06.475Z,47.00
2017-09-22T14:41:34.829Z,47.80
2017-09-22T14:44:02.311Z,47.70
2017-09-22T14:46:29.809Z,47.60
2017-09-22T14:48:57.302Z,47.90
2017-09-22T14:51:24.788Z,47.80
2017-09-22T14:53:52.328Z,47.40
2017-09-22T14:56:19.817Z,47.50
2017-09-22T14:58:47.342Z,47.80
2017-09-22T15:01:14.855Z,48.10
2017-09-22T15:03:43.092Z,48.60
2017-09-22T15:06:10.618Z,48.60
2017-09-22T15:08:38.091Z,48.80
2017-09-22T15:11:05.603Z,48.90
2017-09-22T15:13:33.108Z,48.70
2017-09-22T15:16:00.714Z,48.50
2017-09-22T15:18:28.203Z,48.70
2017-09-22T15:20:55.770Z,49.30
2017-09-22T15:23:23.252Z,49.30
2017-09-22T15:25:51.863Z,49.50
2017-09-22T15:28:19.335Z,49.50
2017-09-22T15:30:46.919Z,49.60
2017-09-22T15:33:14.444Z,49.30
2017-09-22T15:35:41.936Z,49.70
2017-09-22T15:38:09.451Z,49.40
2017-09-22T15:40:36.933Z,49.10
2017-09-22T15:43:04.422Z,49.00
2017-09-22T15:45:32.131Z,49.50
2017-09-22T15:47:59.622Z,49.50
2017-09-22T15:50:27.108Z,49.50
2017-09-22T15:52:54.603Z,49.70
2017-09-22T15:55:22.090Z,50.20
2017-09-22T15:57:49.574Z,50.30
2017-09-22T16:00:17.075Z,50.20
2017-09-22T16:02:45.347Z,50.60
2017-09-22T16:05:12.830Z,50.60
2017-09-22T16:07:40.444Z,50.90
2017-09-22T16:10:08.681Z,51.10
2017-09-22T16:12:36.151Z,51.00
2017-09-22T16:15:03.790Z,51.20
2017-09-22T16:17:31.318Z,51.00
2017-09-22T16:19:58.906Z,51.10
2017-09-22T16:22:26.389Z,51.50
2017-09-22T16:24:54.006Z,51.70
2017-09-22T16:27:21.500Z,52.10
2017-09-22T16:29:48.981Z,52.10
2017-09-22T16:32:16.548Z,51.70
2017-09-22T16:34:44.050Z,51.70
2017-09-22T16:37:11.582Z,52.20
2017-09-22T16:39:39.939Z,52.40
2017-09-22T16:42:08.169Z,52.40
2017-09-22T16:44:36.535Z,52.80
2017-09-22T16:47:05.466Z,52.80
2017-09-22T16:49:33.130Z,52.70
2017-09-22T16:52:00.631Z,52.60
2017-09-22T16:54:28.100Z,52.70
2017-09-22T16:56:55.642Z,52.90
2017-09-22T16:59:23.951Z,53.40
2017-09-22T17:01:51.467Z,53.40
2017-09-22T17:04:19.062Z,53.30
2017-09-22T17:06:46.639Z,53.80
2017-09-22T17:09:14.181Z,53.90
2017-09-22T17:11:41.713Z,54.10
2017-09-22T17:14:09.251Z,54.40
2017-09-22T17:16:37.809Z,54.70
2017-09-22T17:19:05.282Z,54.70
2017-09-22T17:21:33.852Z,54.80
2017-09-22T17:24:02.140Z,55.20
2017-09-22T17:26:30.379Z,55.30
2017-09-22T17:28:57.880Z,55.30
2017-09-22T17:31:25.380Z,55.50
2017-09-22T17:33:53.724Z,56.40
2017-09-22T17:36:21.216Z,56.40
2017-09-22T17:38:48.731Z,56.40
2017-09-22T17:41:16.494Z,56.50
2017-09-22T17:43:43.959Z,56.40
2017-09-22T17:46:11.423Z,56.40
2017-09-22T17:48:39.669Z,56.70
2017-09-22T17:51:07.145Z,56.60
2017-09-22T17:53:35.386Z,57.10
2017-09-22T17:56:02.858Z,57.40
2017-09-22T17:58:30.345Z,57.60
2017-09-22T18:00:57.839Z,57.70
2017-09-22T18:03:25.414Z,58.00
2017-09-22T18:05:52.903Z,57.80
2017-09-22T18:08:20.379Z,58.10
2017-09-22T18:10:47.877Z,58.30
2017-09-22T18:13:15.362Z,57.80
2017-09-22T18:15:43.618Z,58.10
2017-09-22T18:18:11.083Z,58.10
2017-09-22T18:20:38.698Z,58.20
2017-09-22T18:23:06.221Z,58.30
2017-09-22T18:25:34.495Z,58.70
2017-09-22T18:28:02.008Z,58.70
2017-09-22T18:30:29.470Z,58.70
2017-09-22T18:32:57.718Z,59.20
2017-09-22T18:35:25.937Z,59.50
2017-09-22T18:37:53.455Z,59.40
2017-09-22T18:40:20.976Z,59.70
2017-09-22T18:42:48.470Z,59.80
2017-09-22T18:45:16.783Z,60.40
2017-09-22T18:47:45.017Z,61.00
2017-09-22T18:50:12.480Z,61.00
2017-09-22T18:52:39.966Z,61.30
2017-09-22T18:55:08.375Z,61.40
2017-09-22T18:57:36.007Z,61.80
2017-09-22T19:00:03.503Z,61.80
2017-09-22T19:02:31.053Z,61.70
2017-09-22T19:04:58.536Z,61.70
2017-09-22T19:07:26.021Z,61.90
2017-09-22T19:09:53.515Z,62.00
2017-09-22T19:12:21.012Z,61.70
2017-09-22T19:14:48.666Z,62.00
2017-09-22T19:17:16.214Z,62.10
2017-09-22T19:19:43.696Z,62.30
2017-09-22T19:22:11.948Z,62.50
2017-09-22T19:24:39.426Z,62.40
2017-09-22T19:27:06.967Z,62.40
2017-09-22T19:29:34.467Z,62.80
2017-09-22T19:32:01.944Z,62.90
2017-09-22T19:34:29.417Z,62.90
2017-09-22T19:36:56.923Z,62.80
2017-09-22T19:39:24.390Z,62.90
2017-09-22T19:41:51.896Z,63.20
2017-09-22T19:44:20.153Z,63.60
2017-09-22T19:46:48.407Z,63.40
2017-09-22T19:49:15.945Z,63.30
2017-09-22T19:51:43.415Z,63.50
2017-09-22T19:54:11.671Z,63.90
2017-09-22T19:56:39.176Z,63.80
2017-09-22T19:59:06.643Z,63.80
2017-09-22T20:01:34.207Z,64.00
2017-09-22T20:04:02.465Z,64.20
2017-09-22T20:06:30.096Z,64.20
2017-09-22T20:08:58.346Z,65.20
2017-09-22T20:11:25.836Z,64.60
2017-09-22T20:13:53.385Z,64.80
2017-09-22T20:16:21.649Z,65.00
2017-09-22T20:18:49.876Z,65.20
2017-09-22T20:21:18.353Z,66.00
2017-09-22T20:23:46.616Z,65.80
2017-09-22T20:26:18.278Z,65.70
2017-09-22T20:28:46.399Z,65.70
2017-09-22T20:31:13.992Z,65.80
2017-09-22T20:33:41.479Z,66.00
2017-09-22T20:36:09.114Z,66.10
2017-09-22T20:38:36.799Z,66.30
2017-09-22T20:41:04.285Z,66.40
2017-09-22T20:43:32.668Z,66.60
2017-09-22T20:46:00.888Z,66.80
2017-09-22T20:48:28.361Z,66.70
2017-09-22T20:50:55.949Z,67.20
2017-09-22T20:53:23.415Z,67.20
2017-09-22T20:55:51.029Z,67.40
2017-09-22T20:58:18.480Z,67.50
2017-09-22T21:00:45.957Z,67.70
2017-09-22T21:03:13.462Z,67.80
2017-09-22T21:05:40.936Z,68.10
2017-09-22T21:08:08.480Z,68.40
2017-09-22T21:10:36.026Z,68.50
2017-09-22T21:13:03.598Z,68.50
2017-09-22T21:15:31.298Z,69.10
2017-09-22T21:17:58.763Z,68.60
2017-09-22T21:20:26.232Z,69.40
2017-09-22T21:22:53.723Z,68.70
2017-09-22T21:25:21.188Z,68.70
2017-09-22T21:27:48.653Z,68.90
2017-09-22T21:30:16.905Z,68.90
2017-09-22T21:32:44.388Z,68.90
2017-09-22T21:35:11.984Z,69.10
2017-09-22T21:37:39.439Z,69.10
2017-09-22T21:40:06.916Z,69.00
2017-09-22T21:42:34.616Z,68.90
2017-09-22T21:45:02.075Z,69.50
2017-09-22T21:47:29.543Z,68.80
2017-09-22T21:49:57.036Z,69.00
2017-09-22T21:52:24.529Z,68.90
2017-09-22T21:54:52.014Z,69.00
2017-09-22T21:57:19.491Z,69.10
2017-09-22T21:59:46.946Z,69.30
2017-09-22T22:02:14.518Z,69.70
2017-09-22T22:04:48.470Z,69.50
2017-09-22T22:07:21.687Z,69.40
2017-09-22T22:09:49.941Z,69.50
2017-09-22T22:12:17.620Z,69.60
2017-09-22T22:14:45.082Z,69.50
2017-09-22T22:17:12.538Z,69.50
2017-09-22T22:19:40.031Z,69.50
2017-09-22T22:22:07.516Z,69.70
2017-09-22T22:24:35.009Z,70.00
2017-09-22T22:27:02.462Z,69.90
2017-09-22T22:29:30.738Z,70.10
2017-09-22T22:31:58.235Z,70.00
2017-09-22T22:34:26.463Z,70.90
2017-09-22T22:37:04.804Z,70.10
2017-09-22T22:39:32.370Z,69.60
2017-09-22T22:42:00.724Z,69.70
2017-09-22T22:44:28.178Z,69.70
2017-09-22T22:46:55.737Z,69.70
2017-09-22T22:49:23.983Z,69.70
2017-09-22T22:51:51.457Z,69.70
2017-09-22T22:54:19.038Z,69.80
2017-09-22T22:56:48.199Z,69.80
2017-09-22T22:59:15.678Z,69.80
2017-09-22T23:01:43.164Z,69.80
2017-09-22T23:04:10.617Z,69.60
2017-09-22T23:06:38.186Z,69.70
2017-09-22T23:09:05.678Z,69.60
2017-09-22T23:11:33.140Z,69.80
2017-09-22T23:14:00.628Z,70.50
2017-09-22T23:16:28.096Z,70.00
2017-09-22T23:18:55.599Z,70.00
2017-09-22T23:21:23.068Z,70.00
2017-09-22T23:23:50.555Z,70.20
2017-09-22T23:26:18.023Z,70.10
2017-09-22T23:28:45.478Z,70.00
2017-09-22T23:31:13.852Z,70.30
2017-09-22T23:33:41.305Z,70.20
2017-09-22T23:36:09.538Z,70.20
2017-09-22T23:38:37.114Z,70.20
2017-09-22T23:41:04.581Z,70.30
2017-09-22T23:43:32.199Z,70.60
2017-09-22T23:45:59.663Z,70.50
2017-09-22T23:48:27.254Z,70.50
2017-09-22T23:50:54.712Z,70.50
2017-09-22T23:53:22.178Z,70.70
2017-09-22T23:55:49.666Z,70.70
2017-09-22T23:58:17.122Z,70.50
